createdAt,value
2016-12-04T00:00:50.170Z,-2.63
2016-12-04T00:01:58.852Z,-2.61
2016-12-04T00:03:07.536Z,-2.69
2016-12-04T00:04:16.222Z,-2.66
2016-12-04T00:05:24.935Z,-2.66
2016-12-04T00:06:33.615Z,-2.66
2016-12-04T00:07:42.338Z,-2.58
2016-12-04T00:08:51.019Z,-2.57
2016-12-04T00:09:59.704Z,-2.51
2016-12-04T00:11:08.415Z,-2.54
2016-12-04T00:12:17.094Z,-2.51
2016-12-04T00:13:25.778Z,-2.62
2016-12-04T00:14:34.480Z,-2.68
2016-12-04T00:15:43.160Z,-2.61
2016-12-04T00:16:51.838Z,-2.61
2016-12-04T00:18:00.522Z,-2.69
2016-12-04T00:19:09.522Z,-2.69
2016-12-04T00:20:18.203Z,-2.7
2016-12-04T00:21:26.886Z,-2.72
2016-12-04T00:22:35.574Z,-2.72
2016-12-04T00:23:44.261Z,-2.62
2016-12-04T00:24:52.941Z,-2.57
2016-12-04T00:26:01.627Z,-2.51
2016-12-04T00:27:10.308Z,-2.44
2016-12-04T00:28:18.987Z,-2.44
2016-12-04T00:29:27.670Z,-2.29
2016-12-04T00:30:36.362Z,-2.36
2016-12-04T00:31:45.076Z,-2.48
2016-12-04T00:32:53.775Z,-2.33
2016-12-04T00:34:02.459Z,-2.37
2016-12-04T00:35:11.142Z,-2.2
2016-12-04T00:36:19.827Z,-2.26
2016-12-04T00:37:28.511Z,-2.18
2016-12-04T00:38:37.191Z,-2.25
2016-12-04T00:39:45.878Z,-2.32
2016-12-04T00:40:54.560Z,-2.37
2016-12-04T00:42:03.241Z,-2.48
2016-12-04T00:43:11.933Z,-2.52
2016-12-04T00:44:20.620Z,-2.65
2016-12-04T00:45:29.304Z,-2.66
2016-12-04T00:46:37.984Z,-2.73
2016-12-04T00:47:46.669Z,-2.63
2016-12-04T00:48:55.356Z,-2.75
2016-12-04T00:50:04.033Z,-2.75
2016-12-04T00:51:12.710Z,-2.75
2016-12-04T00:52:21.395Z,-2.68
2016-12-04T00:53:30.080Z,-2.73
2016-12-04T00:54:38.761Z,-2.73
2016-12-04T00:55:47.440Z,-2.73
2016-12-04T00:56:56.120Z,-2.75
2016-12-04T00:58:04.806Z,-2.7
2016-12-04T00:59:13.504Z,-2.66
2016-12-04T01:00:22.501Z,-2.66
2016-12-04T01:01:31.182Z,-2.66
2016-12-04T01:02:39.862Z,-2.65
2016-12-04T01:03:48.543Z,-2.55
2016-12-04T01:04:57.227Z,-2.54
2016-12-04T01:06:05.921Z,-2.52
2016-12-04T01:07:14.599Z,-2.52
2016-12-04T01:08:23.287Z,-2.44
2016-12-04T01:09:31.975Z,-2.47
2016-12-04T01:10:40.657Z,-2.47
2016-12-04T01:11:49.340Z,-2.42
2016-12-04T01:12:58.025Z,-2.47
2016-12-04T01:14:06.707Z,-2.47
2016-12-04T01:15:15.423Z,-2.54
2016-12-04T01:16:24.116Z,-2.54
2016-12-04T01:17:32.797Z,-2.54
2016-12-04T01:18:41.484Z,-2.51
2016-12-04T01:19:50.172Z,-2.61
2016-12-04T01:20:58.858Z,-2.51
2016-12-04T01:22:07.545Z,-2.55
2016-12-04T01:23:16.226Z,-2.57
2016-12-04T01:24:24.909Z,-2.61
2016-12-04T01:25:33.596Z,-2.61
2016-12-04T01:26:42.277Z,-2.62
2016-12-04T01:27:50.957Z,-2.66
2016-12-04T01:28:59.641Z,-2.69
2016-12-04T01:30:08.320Z,-2.7
2016-12-04T01:31:17.002Z,-2.73
2016-12-04T01:32:25.689Z,-2.69
2016-12-04T01:33:34.372Z,-2.7
2016-12-04T01:34:43.053Z,-2.68
2016-12-04T01:35:51.738Z,-2.7
2016-12-04T01:37:00.420Z,-2.7
2016-12-04T01:38:09.105Z,-2.84
2016-12-04T01:39:17.790Z,-2.89
2016-12-04T01:40:26.470Z,-2.98
2016-12-04T01:41:35.155Z,-3.01
2016-12-04T01:42:43.833Z,-2.86
2016-12-04T01:43:52.520Z,-2.75
2016-12-04T01:45:01.206Z,-2.61
2016-12-04T01:46:09.885Z,-2.47
2016-12-04T01:47:18.583Z,-2.58
2016-12-04T01:48:27.276Z,-2.54
2016-12-04T01:49:35.957Z,-2.66
2016-12-04T01:50:44.648Z,-2.75
2016-12-04T01:51:53.328Z,-2.83
2016-12-04T01:53:02.009Z,-2.86
2016-12-04T01:54:10.695Z,-2.8
2016-12-04T01:55:19.384Z,-2.86
2016-12-04T01:56:28.103Z,-2.91
2016-12-04T01:57:36.785Z,-2.93
2016-12-04T01:58:45.468Z,-3.01
2016-12-04T01:59:54.152Z,-3.05
2016-12-04T02:01:02.839Z,-3.07
2016-12-04T02:02:11.520Z,-3.02
2016-12-04T02:03:20.201Z,-3.07
2016-12-04T02:04:28.892Z,-3.09
2016-12-04T02:05:37.577Z,-3.08
2016-12-04T02:06:46.570Z,-3.08
2016-12-04T02:07:55.255Z,-3.11
2016-12-04T02:09:03.933Z,-3.07
2016-12-04T02:10:12.618Z,-3.07
2016-12-04T02:11:21.306Z,-3.09
2016-12-04T02:12:29.987Z,-3.01
2016-12-04T02:13:38.670Z,-3.05
2016-12-04T02:14:47.349Z,-3.04
2016-12-04T02:15:56.030Z,-3.08
2016-12-04T02:17:04.729Z,-3.22
2016-12-04T02:18:13.415Z,-3.17
2016-12-04T02:19:22.095Z,-3.17
2016-12-04T02:20:30.782Z,-3.25
2016-12-04T02:21:39.467Z,-3.23
2016-12-04T02:22:48.144Z,-3.26
2016-12-04T02:23:56.824Z,-3.4
2016-12-04T02:25:05.510Z,-3.41
2016-12-04T02:26:14.194Z,-3.37
2016-12-04T02:27:22.981Z,-3.25
2016-12-04T02:28:31.663Z,-3.12
2016-12-04T02:29:40.342Z,-2.98
2016-12-04T02:30:49.026Z,-2.87
2016-12-04T02:31:57.710Z,-2.73
2016-12-04T02:33:06.394Z,-2.68
2016-12-04T02:34:15.073Z,-2.55
2016-12-04T02:35:24.070Z,-2.58
2016-12-04T02:36:32.746Z,-2.68
2016-12-04T02:37:41.422Z,-2.66
2016-12-04T02:38:50.104Z,-2.63
2016-12-04T02:39:58.781Z,-2.68
2016-12-04T02:41:07.464Z,-2.52
2016-12-04T02:42:16.153Z,-2.48
2016-12-04T02:43:24.861Z,-2.4
2016-12-04T02:44:33.540Z,-2.52
2016-12-04T02:45:42.216Z,-2.58
2016-12-04T02:46:50.935Z,-2.65
2016-12-04T02:47:59.617Z,-2.8
2016-12-04T02:49:08.296Z,-2.86
2016-12-04T02:50:16.988Z,-3.02
2016-12-04T02:51:25.670Z,-2.96
2016-12-04T02:52:34.353Z,-2.84
2016-12-04T02:53:43.039Z,-2.91
2016-12-04T02:54:51.729Z,-2.78
2016-12-04T02:56:00.407Z,-2.69
2016-12-04T02:57:09.094Z,-2.65
2016-12-04T02:58:17.784Z,-2.63
2016-12-04T02:59:26.469Z,-2.58
2016-12-04T03:00:35.157Z,-2.52
2016-12-04T03:01:43.843Z,-2.52
2016-12-04T03:02:52.531Z,-2.52
2016-12-04T03:04:01.218Z,-2.52
2016-12-04T03:05:09.898Z,-2.51
2016-12-04T03:06:18.583Z,-2.51
2016-12-04T03:07:27.420Z,-2.5
2016-12-04T03:08:36.100Z,-2.57
2016-12-04T03:09:44.780Z,-2.55
2016-12-04T03:10:53.466Z,-2.52
2016-12-04T03:12:02.172Z,-2.51
2016-12-04T03:13:11.202Z,-2.36
2016-12-04T03:14:19.878Z,-2.36
2016-12-04T03:15:28.559Z,-2.22
2016-12-04T03:16:37.243Z,-2.2
2016-12-04T03:17:45.923Z,-2.22
2016-12-04T03:18:54.654Z,-2.14
2016-12-04T03:20:03.345Z,-2.15
2016-12-04T03:21:12.021Z,-2.23
2016-12-04T03:22:20.701Z,-2.22
2016-12-04T03:23:29.695Z,-2.15
2016-12-04T03:24:38.373Z,-2.11
2016-12-04T03:25:47.051Z,-1.93
2016-12-04T03:26:55.767Z,-1.93
2016-12-04T03:28:04.446Z,-1.81
2016-12-04T03:29:13.125Z,-1.6
2016-12-04T03:30:21.808Z,-1.68
2016-12-04T03:31:30.488Z,-1.72
2016-12-04T03:32:39.169Z,-1.79
2016-12-04T03:33:47.852Z,-1.92
2016-12-04T03:34:56.529Z,-1.9
2016-12-04T03:36:05.212Z,-1.9
2016-12-04T03:37:13.897Z,-1.94
2016-12-04T03:38:22.575Z,-2
2016-12-04T03:39:31.256Z,-2.05
2016-12-04T03:40:39.945Z,-2.14
2016-12-04T03:41:48.625Z,-2.14
2016-12-04T03:42:57.694Z,-2.18
2016-12-04T03:44:06.705Z,-2.33
2016-12-04T03:45:15.389Z,-2.37
2016-12-04T03:46:24.077Z,-2.55
2016-12-04T03:47:32.769Z,-2.63
2016-12-04T03:48:41.451Z,-2.76
2016-12-04T03:49:50.132Z,-2.87
2016-12-04T03:50:58.815Z,-2.73
2016-12-04T03:52:07.498Z,-2.68
2016-12-04T03:53:16.175Z,-2.62
2016-12-04T03:54:24.854Z,-2.76
2016-12-04T03:55:33.533Z,-2.8
2016-12-04T03:56:42.212Z,-2.7
2016-12-04T03:57:50.895Z,-2.63
2016-12-04T03:58:59.573Z,-2.52
2016-12-04T04:00:08.261Z,-2.57
2016-12-04T04:01:17.257Z,-2.55
2016-12-04T04:02:25.967Z,-2.62
2016-12-04T04:03:34.647Z,-2.68
2016-12-04T04:04:43.327Z,-2.57
2016-12-04T04:05:52.016Z,-2.63
2016-12-04T04:07:00.695Z,-2.51
2016-12-04T04:08:09.378Z,-2.45
2016-12-04T04:09:18.060Z,-2.36
2016-12-04T04:10:26.742Z,-2.28
2016-12-04T04:11:35.440Z,-2.34
2016-12-04T04:12:44.121Z,-2.34
2016-12-04T04:13:52.803Z,-2.42
2016-12-04T04:15:01.485Z,-2.52
2016-12-04T04:16:10.235Z,-2.73
2016-12-04T04:17:18.914Z,-2.75
2016-12-04T04:18:27.601Z,-2.68
2016-12-04T04:19:36.285Z,-2.84
2016-12-04T04:20:44.968Z,-2.84
2016-12-04T04:21:53.964Z,-2.87
2016-12-04T04:23:02.650Z,-2.9
2016-12-04T04:24:11.332Z,-2.9
2016-12-04T04:25:20.018Z,-3.01
2016-12-04T04:26:28.729Z,-3.11
2016-12-04T04:27:37.414Z,-3.14
2016-12-04T04:28:46.094Z,-3.14
2016-12-04T04:29:54.777Z,-3.25
2016-12-04T04:31:03.779Z,-3.3
2016-12-04T04:32:12.461Z,-3.23
2016-12-04T04:33:21.148Z,-3.27
2016-12-04T04:34:29.836Z,-3.22
2016-12-04T04:35:38.519Z,-3.26
2016-12-04T04:36:47.202Z,-3.23
2016-12-04T04:37:55.891Z,-3.25
2016-12-04T04:39:04.577Z,-3.4
2016-12-04T04:40:13.262Z,-3.36
2016-12-04T04:41:21.942Z,-3.27
2016-12-04T04:42:30.631Z,-3.15
2016-12-04T04:43:39.319Z,-3.11
2016-12-04T04:44:48.031Z,-2.98
2016-12-04T04:45:56.713Z,-2.98
2016-12-04T04:47:05.711Z,-2.98
2016-12-04T04:48:14.430Z,-3.05
2016-12-04T04:49:23.115Z,-3.07
2016-12-04T04:50:32.115Z,-3.11
2016-12-04T04:51:40.805Z,-3.14
2016-12-04T04:52:49.490Z,-3.19
2016-12-04T04:53:58.179Z,-3.09
2016-12-04T04:55:06.866Z,-3.08
2016-12-04T04:56:15.548Z,-3.09
2016-12-04T04:57:24.233Z,-3.11
2016-12-04T04:58:32.916Z,-2.98
2016-12-04T04:59:41.599Z,-2.98
2016-12-04T05:00:50.283Z,-2.9
2016-12-04T05:01:58.965Z,-2.73
2016-12-04T05:03:07.648Z,-2.52
2016-12-04T05:04:16.332Z,-2.47
2016-12-04T05:05:25.011Z,-2.34
2016-12-04T05:06:33.696Z,-2.36
2016-12-04T05:07:42.377Z,-2.33
2016-12-04T05:08:51.060Z,-2.5
2016-12-04T05:09:59.777Z,-2.33
2016-12-04T05:11:08.462Z,-2.2
2016-12-04T05:12:17.143Z,-2.11
2016-12-04T05:13:25.826Z,-2.02
2016-12-04T05:14:34.510Z,-1.99
2016-12-04T05:15:43.505Z,-1.97
2016-12-04T05:16:52.189Z,-2.02
2016-12-04T05:18:00.874Z,-2.04
2016-12-04T05:19:09.560Z,-1.93
2016-12-04T05:20:18.244Z,-1.96
2016-12-04T05:21:26.927Z,-2.05
2016-12-04T05:22:35.613Z,-2.04
2016-12-04T05:23:44.293Z,-1.97
2016-12-04T05:24:52.975Z,-1.99
2016-12-04T05:26:01.661Z,-1.96
2016-12-04T05:27:10.342Z,-1.99
2016-12-04T05:28:19.025Z,-1.94
2016-12-04T05:29:27.709Z,-1.97
2016-12-04T05:30:36.393Z,-2.04
2016-12-04T05:31:45.394Z,-1.99
2016-12-04T05:32:54.080Z,-1.87
2016-12-04T05:34:02.772Z,-1.9
2016-12-04T05:35:11.456Z,-1.82
2016-12-04T05:36:20.144Z,-1.78
2016-12-04T05:37:28.825Z,-1.78
2016-12-04T05:38:37.507Z,-1.6
2016-12-04T05:39:46.188Z,-1.64
2016-12-04T05:40:54.878Z,-1.69
2016-12-04T05:42:03.566Z,-1.53
2016-12-04T05:43:12.250Z,-1.6
2016-12-04T05:44:20.934Z,-1.61
2016-12-04T05:45:29.623Z,-1.69
2016-12-04T05:46:38.306Z,-1.6
2016-12-04T05:47:46.992Z,-1.64
2016-12-04T05:48:55.683Z,-1.58
2016-12-04T05:50:04.364Z,-1.61
2016-12-04T05:51:13.052Z,-1.6
2016-12-04T05:52:21.745Z,-1.64
2016-12-04T05:53:30.433Z,-1.63
2016-12-04T05:54:39.118Z,-1.69
2016-12-04T05:55:47.805Z,-1.64
2016-12-04T05:56:56.497Z,-1.69
2016-12-04T05:58:05.180Z,-1.58
2016-12-04T05:59:13.862Z,-1.5
2016-12-04T06:00:22.554Z,-1.4
2016-12-04T06:01:31.243Z,-1.42
2016-12-04T06:02:40.243Z,-1.36
2016-12-04T06:03:48.919Z,-1.22
2016-12-04T06:04:57.601Z,-1.19
2016-12-04T06:06:06.286Z,-1.22
2016-12-04T06:07:14.975Z,-1.21
2016-12-04T06:08:23.688Z,-1.15
2016-12-04T06:09:32.369Z,-1.04
2016-12-04T06:10:41.055Z,-1.03
2016-12-04T06:11:49.745Z,-1.06
2016-12-04T06:12:58.428Z,-1.12
2016-12-04T06:14:07.115Z,-1.12
2016-12-04T06:15:15.802Z,-1.14
2016-12-04T06:16:24.486Z,-1.21
2016-12-04T06:17:33.167Z,-1.36
2016-12-04T06:18:41.845Z,-1.38
2016-12-04T06:19:50.528Z,-1.38
2016-12-04T06:20:59.210Z,-1.51
2016-12-04T06:22:07.892Z,-1.43
2016-12-04T06:23:16.915Z,-1.45
2016-12-04T06:24:25.598Z,-1.39
2016-12-04T06:25:34.277Z,-1.35
2016-12-04T06:26:42.963Z,-1.29
2016-12-04T06:27:51.657Z,-1.29
2016-12-04T06:29:00.344Z,-1.25
2016-12-04T06:30:09.028Z,-1.25
2016-12-04T06:31:17.712Z,-1.24
2016-12-04T06:32:26.397Z,-1.21
2016-12-04T06:33:35.079Z,-0.99
2016-12-04T06:34:43.770Z,-0.84
2016-12-04T06:35:52.485Z,-0.82
2016-12-04T06:37:01.166Z,-0.74
2016-12-04T06:38:09.858Z,-0.75
2016-12-04T06:39:18.542Z,-0.77
2016-12-04T06:40:27.248Z,-0.78
2016-12-04T06:41:35.932Z,-0.84
2016-12-04T06:42:44.619Z,-0.81
2016-12-04T06:43:53.302Z,-0.78
2016-12-04T06:45:01.987Z,-0.75
2016-12-04T06:46:10.674Z,-0.93
2016-12-04T06:47:19.356Z,-0.85
2016-12-04T06:48:28.046Z,-0.85
2016-12-04T06:49:36.725Z,-0.94
2016-12-04T06:50:45.438Z,-0.87
2016-12-04T06:51:54.128Z,-0.96
2016-12-04T06:53:02.807Z,-1.03
2016-12-04T06:54:11.490Z,-0.85
2016-12-04T06:55:20.176Z,-0.96
2016-12-04T06:56:28.858Z,-0.87
2016-12-04T06:57:37.538Z,-0.89
2016-12-04T06:58:46.221Z,-0.89
2016-12-04T06:59:54.904Z,-0.8
2016-12-04T07:01:03.595Z,-0.7
2016-12-04T07:02:12.329Z,-0.57
2016-12-04T07:03:21.015Z,-0.6
2016-12-04T07:04:29.699Z,-0.57
2016-12-04T07:05:38.380Z,-0.59
2016-12-04T07:06:47.064Z,-0.62
2016-12-04T07:07:55.752Z,-0.64
2016-12-04T07:09:04.440Z,-0.6
2016-12-04T07:10:13.131Z,-0.53
2016-12-04T07:11:21.810Z,-0.54
2016-12-04T07:12:30.490Z,-0.48
2016-12-04T07:13:39.178Z,-0.53
2016-12-04T07:14:47.858Z,-0.59
2016-12-04T07:15:56.550Z,-0.62
2016-12-04T07:17:05.238Z,-0.62
2016-12-04T07:18:13.923Z,-0.54
2016-12-04T07:19:22.609Z,-0.49
2016-12-04T07:20:31.608Z,-0.48
2016-12-04T07:21:40.286Z,-0.49
2016-12-04T07:22:48.965Z,-0.46
2016-12-04T07:23:57.651Z,-0.42
2016-12-04T07:25:06.336Z,-0.36
2016-12-04T07:26:15.020Z,-0.28
2016-12-04T07:27:23.704Z,-0.18
2016-12-04T07:28:32.390Z,-0.05
2016-12-04T07:29:41.073Z,0
2016-12-04T07:30:49.750Z,0.06
2016-12-04T07:31:58.430Z,0.06
2016-12-04T07:33:07.119Z,0.06
2016-12-04T07:34:15.803Z,0.06
2016-12-04T07:35:24.485Z,0.18
2016-12-04T07:36:33.167Z,0.2
2016-12-04T07:37:41.884Z,0.18
2016-12-04T07:38:50.567Z,0.16
2016-12-04T07:39:59.260Z,0.19
2016-12-04T07:41:07.942Z,0.05
2016-12-04T07:42:16.623Z,-0.05
2016-12-04T07:43:25.311Z,-0.07
2016-12-04T07:44:34.001Z,-0.15
2016-12-04T07:45:42.686Z,-0.2
2016-12-04T07:46:51.368Z,-0.39
2016-12-04T07:48:00.052Z,-0.42
2016-12-04T07:49:08.740Z,-0.44
2016-12-04T07:50:17.421Z,-0.48
2016-12-04T07:51:26.102Z,-0.51
2016-12-04T07:52:34.796Z,-0.48
2016-12-04T07:53:43.481Z,-0.49
2016-12-04T07:54:52.163Z,-0.51
2016-12-04T07:56:00.848Z,-0.53
2016-12-04T07:57:09.532Z,-0.53
2016-12-04T07:58:18.217Z,-0.67
2016-12-04T07:59:26.904Z,-0.75
2016-12-04T08:00:35.598Z,-0.74
2016-12-04T08:01:44.290Z,-0.91
2016-12-04T08:02:52.977Z,-0.89
2016-12-04T08:04:01.661Z,-0.8
2016-12-04T08:05:10.342Z,-0.8
2016-12-04T08:06:19.024Z,-0.57
2016-12-04T08:07:27.710Z,-0.62
2016-12-04T08:08:36.394Z,-0.53
2016-12-04T08:09:45.116Z,-0.59
2016-12-04T08:10:53.804Z,-0.56
2016-12-04T08:12:02.487Z,-0.51
2016-12-04T08:13:11.171Z,-0.35
2016-12-04T08:14:19.850Z,-0.23
2016-12-04T08:15:28.526Z,-0.3
2016-12-04T08:16:37.212Z,-0.38
2016-12-04T08:17:45.893Z,-0.38
2016-12-04T08:18:54.575Z,-0.35
2016-12-04T08:20:03.262Z,-0.36
2016-12-04T08:21:11.949Z,-0.36
2016-12-04T08:22:20.629Z,-0.38
2016-12-04T08:23:29.315Z,-0.49
2016-12-04T08:24:38.001Z,-0.46
2016-12-04T08:25:46.683Z,-0.42
2016-12-04T08:26:55.367Z,-0.28
2016-12-04T08:28:04.055Z,-0.27
2016-12-04T08:29:13.378Z,-0.21
2016-12-04T08:30:22.065Z,-0.26
2016-12-04T08:31:30.756Z,-0.24
2016-12-04T08:32:39.443Z,-0.28
2016-12-04T08:33:48.124Z,-0.33
2016-12-04T08:34:56.809Z,-0.3
2016-12-04T08:36:05.518Z,-0.3
2016-12-04T08:37:14.510Z,-0.28
2016-12-04T08:38:23.205Z,-0.27
2016-12-04T08:39:31.886Z,-0.24
2016-12-04T08:40:40.573Z,-0.18
2016-12-04T08:41:49.258Z,-0.12
2016-12-04T08:42:57.942Z,-0.03
2016-12-04T08:44:06.636Z,0.01
2016-12-04T08:45:15.329Z,0.08
2016-12-04T08:46:24.010Z,-0.02
2016-12-04T08:47:32.701Z,0
2016-12-04T08:48:41.380Z,0.05
2016-12-04T08:49:50.075Z,-0.06
2016-12-04T08:50:58.795Z,0.12
2016-12-04T08:52:07.481Z,0.23
2016-12-04T08:53:16.165Z,0.19
2016-12-04T08:54:24.846Z,0.16
2016-12-04T08:55:33.851Z,0.19
2016-12-04T08:56:42.535Z,0.12
2016-12-04T08:57:51.232Z,0.13
2016-12-04T08:58:59.917Z,0.15
2016-12-04T09:00:08.600Z,0.13
2016-12-04T09:01:17.288Z,0.23
2016-12-04T09:02:26.000Z,0.2
2016-12-04T09:03:34.685Z,0.27
2016-12-04T09:04:43.391Z,0.34
2016-12-04T09:05:52.073Z,0.33
2016-12-04T09:07:00.761Z,0.33
2016-12-04T09:08:09.447Z,0.39
2016-12-04T09:09:18.136Z,0.42
2016-12-04T09:10:26.820Z,0.48
2016-12-04T09:11:35.500Z,0.29
2016-12-04T09:12:44.185Z,0.44
2016-12-04T09:13:52.866Z,0.47
2016-12-04T09:15:01.550Z,0.45
2016-12-04T09:16:10.237Z,0.63
2016-12-04T09:17:18.964Z,0.66
2016-12-04T09:18:27.671Z,0.7
2016-12-04T09:19:36.388Z,0.78
2016-12-04T09:20:45.068Z,0.91
2016-12-04T09:21:53.750Z,0.96
2016-12-04T09:23:02.434Z,0.94
2016-12-04T09:24:11.122Z,0.96
2016-12-04T09:25:19.809Z,0.92
2016-12-04T09:26:28.493Z,0.86
2016-12-04T09:27:37.178Z,0.67
2016-12-04T09:28:45.866Z,0.47
2016-12-04T09:29:54.550Z,0.51
2016-12-04T09:31:03.231Z,0.45
2016-12-04T09:32:11.919Z,0.48
2016-12-04T09:33:20.608Z,0.51
2016-12-04T09:34:29.619Z,0.51
2016-12-04T09:35:38.301Z,0.67
2016-12-04T09:36:46.983Z,0.86
2016-12-04T09:37:55.671Z,0.77
2016-12-04T09:39:04.358Z,0.91
2016-12-04T09:40:13.050Z,0.92
2016-12-04T09:41:21.750Z,0.95
2016-12-04T09:42:30.436Z,0.89
2016-12-04T09:43:39.442Z,0.96
2016-12-04T09:44:48.131Z,1.04
2016-12-04T09:45:56.820Z,1.07
2016-12-04T09:47:05.510Z,1.03
2016-12-04T09:48:14.187Z,0.95
2016-12-04T09:49:22.877Z,0.92
2016-12-04T09:50:31.564Z,0.85
2016-12-04T09:51:40.247Z,0.78
2016-12-04T09:52:48.929Z,0.7
2016-12-04T09:53:57.617Z,0.7
2016-12-04T09:55:06.310Z,0.7
2016-12-04T09:56:14.997Z,0.67
2016-12-04T09:57:23.710Z,0.71
2016-12-04T09:58:32.392Z,0.64
2016-12-04T09:59:41.075Z,0.71
2016-12-04T10:00:49.765Z,0.85
2016-12-04T10:01:58.451Z,0.81
2016-12-04T10:03:07.445Z,0.74
2016-12-04T10:04:16.135Z,0.74
2016-12-04T10:05:24.817Z,0.63
2016-12-04T10:06:33.502Z,0.55
2016-12-04T10:07:42.186Z,0.52
2016-12-04T10:08:51.182Z,0.33
2016-12-04T10:09:59.867Z,0.4
2016-12-04T10:11:08.559Z,0.31
2016-12-04T10:12:17.243Z,0.33
2016-12-04T10:13:25.929Z,0.23
2016-12-04T10:14:34.615Z,0.23
2016-12-04T10:15:43.618Z,0.26
2016-12-04T10:16:52.300Z,0.39
2016-12-04T10:18:00.984Z,0.4
2016-12-04T10:19:09.989Z,0.42
2016-12-04T10:20:18.676Z,0.56
2016-12-04T10:21:27.362Z,0.7
2016-12-04T10:22:36.052Z,0.56
2016-12-04T10:23:44.742Z,0.56
2016-12-04T10:24:53.425Z,0.55
2016-12-04T10:26:02.114Z,0.47
2016-12-04T10:27:10.810Z,0.52
2016-12-04T10:28:19.492Z,0.45
2016-12-04T10:29:28.206Z,0.48
2016-12-04T10:30:36.896Z,0.4
2016-12-04T10:31:45.583Z,0.44
2016-12-04T10:32:54.578Z,0.47
2016-12-04T10:34:03.295Z,0.48
2016-12-04T10:35:11.976Z,0.47
2016-12-04T10:36:20.686Z,0.49
2016-12-04T10:37:29.371Z,0.64
2016-12-04T10:38:38.053Z,0.7
2016-12-04T10:39:46.742Z,0.81
2016-12-04T10:40:55.430Z,1.09
2016-12-04T10:42:04.119Z,1.36
2016-12-04T10:43:12.817Z,1.75
2016-12-04T10:44:21.815Z,1.88
2016-12-04T10:45:30.506Z,2
2016-12-04T10:46:39.191Z,2.08
2016-12-04T10:47:47.877Z,2.28
2016-12-04T10:48:56.875Z,2.34
2016-12-04T10:50:05.564Z,2.37
2016-12-04T10:51:14.259Z,2.36
2016-12-04T10:52:22.946Z,2.28
2016-12-04T10:53:31.637Z,2.37
2016-12-04T10:54:40.638Z,2.47
2016-12-04T10:55:49.334Z,2.58
2016-12-04T10:56:58.023Z,2.65
2016-12-04T10:58:06.713Z,2.72
2016-12-04T10:59:15.401Z,2.69
2016-12-04T11:00:24.084Z,2.77
2016-12-04T11:01:32.774Z,2.75
2016-12-04T11:02:41.458Z,2.76
2016-12-04T11:03:50.148Z,2.75
2016-12-04T11:04:58.836Z,2.77
2016-12-04T11:06:07.523Z,2.91
2016-12-04T11:07:16.222Z,3
2016-12-04T11:08:24.907Z,3.08
2016-12-04T11:09:33.592Z,3.03
2016-12-04T11:10:42.283Z,3.18
2016-12-04T11:11:50.975Z,3.34
2016-12-04T11:12:59.672Z,3.58
2016-12-04T11:14:08.363Z,3.59
2016-12-04T11:15:17.052Z,3.82
2016-12-04T11:16:25.738Z,3.89
2016-12-04T11:17:34.427Z,3.91
2016-12-04T11:18:43.115Z,4.02
2016-12-04T11:19:51.806Z,4.09
2016-12-04T11:21:00.509Z,4.09
2016-12-04T11:22:09.198Z,4.04
2016-12-04T11:23:17.890Z,4.02
2016-12-04T11:24:26.580Z,4.03
2016-12-04T11:25:35.283Z,4.02
2016-12-04T11:26:43.973Z,4.1
2016-12-04T11:27:52.658Z,4.14
2016-12-04T11:29:01.665Z,4.1
2016-12-04T11:30:10.357Z,4.22
2016-12-04T11:31:19.099Z,4.2
2016-12-04T11:32:28.099Z,4.13
2016-12-04T11:33:36.785Z,4.09
2016-12-04T11:34:45.474Z,4.13
2016-12-04T11:35:54.159Z,4.06
2016-12-04T11:37:02.858Z,4.06
2016-12-04T11:38:11.546Z,4.12
2016-12-04T11:39:20.239Z,4.14
2016-12-04T11:40:29.252Z,4.39
2016-12-04T11:41:37.949Z,4.39
2016-12-04T11:42:46.642Z,4.45
2016-12-04T11:43:55.360Z,4.49
2016-12-04T11:45:04.044Z,4.61
2016-12-04T11:46:12.740Z,4.63
2016-12-04T11:47:21.432Z,4.74
2016-12-04T11:48:30.122Z,4.78
2016-12-04T11:49:38.809Z,4.78
2016-12-04T11:50:47.497Z,4.74
2016-12-04T11:51:56.190Z,4.75
2016-12-04T11:53:04.879Z,4.76
2016-12-04T11:54:13.565Z,4.7
2016-12-04T11:55:22.257Z,4.7
2016-12-04T11:56:30.946Z,4.63
2016-12-04T11:57:39.635Z,4.64
2016-12-04T11:58:48.331Z,4.67
2016-12-04T11:59:57.051Z,4.71
2016-12-04T12:01:05.744Z,4.7
2016-12-04T12:02:14.442Z,4.75
2016-12-04T12:03:23.135Z,4.86
2016-12-04T12:04:31.821Z,4.92
2016-12-04T12:05:40.510Z,4.83
2016-12-04T12:06:49.196Z,4.75
2016-12-04T12:07:58.200Z,4.75
2016-12-04T12:09:06.889Z,4.95
2016-12-04T12:10:15.577Z,5.2
2016-12-04T12:11:24.295Z,5.64
2016-12-04T12:12:32.983Z,6.05
2016-12-04T12:13:41.668Z,6.47
2016-12-04T12:14:50.684Z,6.77
2016-12-04T12:15:59.688Z,7
2016-12-04T12:17:08.384Z,7.18
2016-12-04T12:18:17.076Z,7.29
2016-12-04T12:19:25.767Z,7.13
2016-12-04T12:20:34.461Z,7.13
2016-12-04T12:21:43.149Z,7.26
2016-12-04T12:22:54.483Z,7.51
2016-12-04T12:24:03.175Z,7.81
2016-12-04T12:25:11.896Z,7.87
2016-12-04T12:26:20.591Z,7.77
2016-12-04T12:27:29.286Z,7.9
2016-12-04T12:28:38.131Z,8.03
2016-12-04T12:29:47.135Z,8.06
2016-12-04T12:30:55.830Z,7.9
2016-12-04T12:32:04.531Z,7.72
2016-12-04T12:33:13.221Z,7.51
2016-12-04T12:34:22.261Z,7.32
2016-12-04T12:35:30.950Z,6.9
2016-12-04T12:36:39.633Z,6.46
2016-12-04T12:37:48.642Z,6.1
2016-12-04T12:38:57.647Z,5.9
2016-12-04T12:40:06.393Z,5.76
2016-12-04T12:41:15.078Z,5.8
2016-12-04T12:42:23.779Z,6.01
2016-12-04T12:43:32.468Z,6.05
2016-12-04T12:44:41.169Z,6.01
2016-12-04T12:45:49.909Z,5.8
2016-12-04T12:46:58.596Z,5.34
2016-12-04T12:48:07.284Z,4.84
2016-12-04T12:49:15.976Z,4.45
2016-12-04T12:50:24.669Z,3.91
2016-12-04T12:51:33.414Z,3.73
2016-12-04T12:52:42.109Z,3.68
2016-12-04T12:53:50.799Z,3.84
2016-12-04T12:54:59.488Z,4.04
2016-12-04T12:56:08.499Z,4.43
2016-12-04T12:57:17.241Z,4.67
2016-12-04T12:58:25.925Z,5.02
2016-12-04T12:59:34.637Z,5.23
2016-12-04T13:00:43.322Z,5.47
2016-12-04T13:01:52.011Z,5.77
2016-12-04T13:03:00.807Z,6.09
2016-12-04T13:04:09.498Z,6.56
2016-12-04T13:05:18.185Z,6.62
2016-12-04T13:06:26.869Z,6.56
2016-12-04T13:07:35.559Z,6.32
2016-12-04T13:08:44.299Z,6.36
2016-12-04T13:09:53.000Z,6.16
2016-12-04T13:11:01.690Z,5.94
2016-12-04T13:12:10.377Z,5.49
2016-12-04T13:13:19.076Z,4.97
2016-12-04T13:14:28.136Z,4.46
2016-12-04T13:15:36.829Z,4.02
2016-12-04T13:16:45.518Z,3.68
2016-12-04T13:17:54.205Z,3.27
2016-12-04T13:19:03.211Z,3.01
2016-12-04T13:20:11.949Z,2.9
2016-12-04T13:21:20.642Z,2.64
2016-12-04T13:22:29.343Z,2.57
2016-12-04T13:23:38.030Z,2.43
2016-12-04T13:24:46.715Z,2.18
2016-12-04T13:25:55.453Z,2.15
2016-12-04T13:27:04.142Z,2.05
2016-12-04T13:28:12.834Z,1.97
2016-12-04T13:29:21.520Z,1.85
2016-12-04T13:30:30.526Z,1.74
2016-12-04T13:31:39.263Z,1.64
2016-12-04T13:32:47.953Z,1.57
2016-12-04T13:33:56.658Z,1.57
2016-12-04T13:35:05.347Z,1.48
2016-12-04T13:36:14.034Z,1.3
2016-12-04T13:37:23.089Z,1.34
2016-12-04T13:38:31.776Z,1.31
2016-12-04T13:39:40.458Z,1.21
2016-12-04T13:40:49.141Z,1.13
2016-12-04T13:41:57.827Z,1.22
2016-12-04T13:43:06.565Z,1.07
2016-12-04T13:44:15.247Z,1.04
2016-12-04T13:45:23.930Z,1.03
2016-12-04T13:46:32.614Z,1.07
2016-12-04T13:47:41.300Z,1
2016-12-04T13:48:50.035Z,1.03
2016-12-04T13:49:58.717Z,1.03
2016-12-04T13:51:07.410Z,1.03
2016-12-04T13:52:16.096Z,0.96
2016-12-04T13:53:24.783Z,0.96
2016-12-04T13:54:33.518Z,0.96
2016-12-04T13:55:42.201Z,0.99
2016-12-04T13:56:50.885Z,0.96
2016-12-04T13:57:59.573Z,0.96
2016-12-04T13:59:08.261Z,0.85
2016-12-04T14:00:16.992Z,0.76
2016-12-04T14:01:25.718Z,0.64
2016-12-04T14:02:34.405Z,0.59
2016-12-04T14:03:43.091Z,0.44
2016-12-04T14:04:51.779Z,0.39
2016-12-04T14:06:00.511Z,0.24
2016-12-04T14:07:09.206Z,0.09
2016-12-04T14:08:17.889Z,0.16
2016-12-04T14:09:26.575Z,0.06
2016-12-04T14:10:35.273Z,0.11
2016-12-04T14:11:44.005Z,0.06
2016-12-04T14:12:52.692Z,0.15
2016-12-04T14:14:01.408Z,0.13
2016-12-04T14:15:10.094Z,0.13
2016-12-04T14:16:18.781Z,0.15
2016-12-04T14:17:27.518Z,0.13
2016-12-04T14:18:36.209Z,0.18
2016-12-04T14:19:44.895Z,0.18
2016-12-04T14:20:53.584Z,0.15
2016-12-04T14:22:02.266Z,0.09
2016-12-04T14:23:11.055Z,0.11
2016-12-04T14:24:19.737Z,0.01
2016-12-04T14:25:28.422Z,-0.05
2016-12-04T14:26:37.108Z,-0.02
2016-12-04T14:27:45.792Z,0.16
2016-12-04T14:28:54.522Z,0.06
2016-12-04T14:30:03.214Z,0.08
2016-12-04T14:31:12.214Z,-0.03
2016-12-04T14:32:20.903Z,0.12
2016-12-04T14:33:29.586Z,0
2016-12-04T14:34:38.317Z,0.11
2016-12-04T14:35:47.002Z,0.19
2016-12-04T14:36:55.684Z,0.2
2016-12-04T14:38:04.372Z,0.08
2016-12-04T14:39:13.059Z,0.3
2016-12-04T14:40:21.795Z,0.24
2016-12-04T14:41:30.481Z,0.33
2016-12-04T14:42:39.167Z,0.33
2016-12-04T14:43:47.847Z,0.3
2016-12-04T14:44:56.533Z,0.26
2016-12-04T14:46:05.586Z,0.12
2016-12-04T14:47:14.271Z,0.23
2016-12-04T14:48:22.955Z,0.13
2016-12-04T14:49:31.637Z,0.16
2016-12-04T14:50:40.317Z,0.23
2016-12-04T14:51:49.045Z,0.24
2016-12-04T14:52:57.731Z,0.31
2016-12-04T14:54:06.416Z,0.34
2016-12-04T14:55:15.103Z,0.42
2016-12-04T14:56:23.784Z,0.45
2016-12-04T14:57:32.524Z,0.48
2016-12-04T14:58:41.211Z,0.44
2016-12-04T14:59:49.901Z,0.44
2016-12-04T15:00:58.587Z,0.47